Time;durP1;ratioP1;P1;durP2;ratioP2;P2;SDS_P1;SDS_P2;PMS_P1;PMS_P2;Temp;Humidity;BMP_temperature;BMP_pressure;BME280_temperature;BME280_humidity;BME280_pressure;Samples;Min_cycle;Max_cycle;Signal;HPM_P1;HPM_P2
2022/09/24 00:00:43;;;;;;;9.93;6.03;;;13.70;99.90;;;;;;5135607;27;20164;-50
2022/09/24 00:03:10;;;;;;;12.77;6.03;;;13.70;99.90;;;;;;5134373;27;20525;-52
2022/09/24 00:05:40;;;;;;;10.27;6.32;;;13.60;99.90;;;;;;5135417;27;20195;-50
2022/09/24 00:08:06;;;;;;;9.60;7.38;;;13.60;99.90;;;;;;5135118;27;20308;-50
2022/09/24 00:10:38;;;;;;;13.95;7.57;;;13.70;99.90;;;;;;5134147;27;20164;-50
2022/09/24 00:13:05;;;;;;;11.70;6.68;;;13.60;99.90;;;;;;5135156;27;20211;-52
2022/09/24 00:15:35;;;;;;;10.50;6.70;;;13.60;99.90;;;;;;5135502;27;20169;-51
2022/09/24 00:18:01;;;;;;;9.00;6.55;;;13.60;99.90;;;;;;5135194;27;20164;-50
2022/09/24 00:20:29;;;;;;;14.60;6.32;;;13.60;99.90;;;;;;5134783;27;20213;-50
2022/09/24 00:22:54;;;;;;;11.68;6.70;;;13.70;99.90;;;;;;5134744;27;20163;-51
2022/09/24 00:28:04;;;;;;;11.38;6.72;;;13.70;99.90;;;;;;5135083;27;20233;-51
2022/09/24 00:30:29;;;;;;;11.85;7.50;;;13.70;99.90;;;;;;5135007;27;20608;-50
2022/09/24 00:32:55;;;;;;;9.52;6.88;;;13.60;99.90;;;;;;5134557;27;20572;-50
2022/09/24 00:35:23;;;;;;;11.98;7.78;;;13.70;99.90;;;;;;5133156;27;20234;-50
2022/09/24 00:37:48;;;;;;;14.20;8.07;;;13.70;99.90;;;;;;5134704;27;20168;-53
2022/09/24 00:40:14;;;;;;;13.70;7.65;;;13.70;99.90;;;;;;5134449;27;20168;-50
2022/09/24 00:42:40;;;;;;;9.68;7.78;;;13.60;99.90;;;;;;5134398;27;20782;-53
2022/09/24 00:45:08;;;;;;;10.70;7.20;;;13.70;99.90;;;;;;5134343;27;20525;-53
2022/09/24 00:47:39;;;;;;;13.65;8.10;;;13.70;99.90;;;;;;5133012;27;20191;-54
2022/09/24 00:50:19;;;;;;;16.60;8.27;;;13.70;99.90;;;;;;5134299;27;20156;-53
2022/09/24 00:52:56;;;;;;;10.43;7.90;;;13.70;99.90;;;;;;5134153;27;20203;-52
2022/09/24 00:55:23;;;;;;;12.40;7.47;;;13.70;99.90;;;;;;5134046;27;20204;-53
2022/09/24 00:57:55;;;;;;;10.68;7.03;;;13.70;99.90;;;;;;5134428;27;20172;-53
2022/09/24 01:00:21;;;;;;;10.45;6.78;;;13.60;99.90;;;;;;5134010;27;20171;-53
2022/09/24 01:02:48;;;;;;;10.15;7.75;;;13.60;99.90;;;;;;5133896;27;20250;-54
2022/09/24 01:05:14;;;;;;;14.82;8.10;;;13.60;99.90;;;;;;5134126;27;20251;-54
2022/09/24 01:07:40;;;;;;;14.35;8.20;;;11.50;99.90;;;;;;5133823;27;20717;-53
2022/09/24 01:10:06;;;;;;;13.27;8.13;;;13.60;99.90;;;;;;5133803;27;20690;-53
2022/09/24 01:12:38;;;;;;;13.13;8.05;;;13.60;99.90;;;;;;5134139;27;20184;-53
2022/09/24 01:15:04;;;;;;;15.77;8.30;;;13.60;99.90;;;;;;5133283;27;20254;-51
2022/09/24 01:17:45;;;;;;;15.52;8.38;;;13.60;99.90;;;;;;5134068;27;20248;-54
2022/09/24 01:20:23;;;;;;;13.90;8.38;;;13.60;99.90;;;;;;5133788;27;20174;-54
2022/09/24 01:23:14;;;;;;;10.77;8.65;;;13.70;99.90;;;;;;5133345;27;20160;-54
2022/09/24 01:26:17;;;;;;;10.82;8.73;;;13.60;99.90;;;;;;5133819;27;20171;-54
2022/09/24 01:29:17;;;;;;;14.85;8.85;;;13.60;99.90;;;;;;5133320;27;20520;-54
2022/09/24 01:31:48;;;;;;;13.75;8.68;;;13.60;99.90;;;;;;5133261;27;20164;-54
2022/09/24 01:34:20;;;;;;;13.77;8.93;;;13.60;99.90;;;;;;5133606;27;20171;-54
2022/09/24 01:36:47;;;;;;;12.15;9.48;;;13.60;99.90;;;;;;5133295;27;20160;-53
2022/09/24 01:39:13;;;;;;;12.13;10.13;;;13.70;99.90;;;;;;5133254;27;20164;-53
2022/09/24 01:41:41;;;;;;;16.27;9.55;;;13.70;99.90;;;;;;5133310;27;20186;-54
2022/09/24 01:44:09;;;;;;;14.65;9.60;;;13.70;99.90;;;;;;5133373;27;20229;-55
2022/09/24 01:46:39;;;;;;;14.85;9.55;;;12.20;99.90;;;;;;5133278;27;20167;-53
2022/09/24 01:49:06;;;;;;;15.50;8.55;;;13.70;99.90;;;;;;5133406;27;20550;-54
2022/09/24 01:51:48;;;;;;;12.88;9.65;;;13.70;99.90;;;;;;5133648;27;20164;-54
2022/09/24 01:54:27;;;;;;;14.18;9.15;;;13.70;99.90;;;;;;5132919;27;20298;-53
2022/09/24 01:57:00;;;;;;;12.93;8.35;;;13.70;99.90;;;;;;5133010;27;20617;-54
2022/09/24 01:59:35;;;;;;;11.77;8.60;;;13.70;99.90;;;;;;5132934;27;20200;-54
2022/09/24 02:02:27;;;;;;;14.10;9.25;;;13.70;99.90;;;;;;5133626;27;20178;-54
2022/09/24 02:05:00;;;;;;;12.43;9.00;;;13.70;99.90;;;;;;5101026;27;20636;-54
2022/09/24 02:07:38;;;;;;;13.32;9.52;;;13.70;99.90;;;;;;5132749;27;20171;-54
2022/09/24 02:10:12;;;;;;;13.93;8.40;;;13.70;99.90;;;;;;5133207;27;20517;-50
2022/09/24 02:12:41;;;;;;;14.57;9.18;;;13.70;99.90;;;;;;5132925;27;20227;-54
2022/09/24 02:15:21;;;;;;;15.80;9.68;;;13.70;99.90;;;;;;5132839;27;20270;-54
2022/09/24 02:17:53;;;;;;;14.23;10.07;;;13.70;99.90;;;;;;5131400;27;20245;-54
2022/09/24 02:20:21;;;;;;;14.90;9.88;;;13.70;99.90;;;;;;5132671;27;20168;-54
2022/09/24 02:22:48;;;;;;;12.40;9.38;;;13.70;99.90;;;;;;5132772;27;20177;-54
2022/09/24 02:25:19;;;;;;;14.25;10.23;;;13.60;99.90;;;;;;5131303;27;20171;-55
2022/09/24 02:27:45;;;;;;;15.18;9.80;;;13.70;99.90;;;;;;5132735;27;20625;-55
2022/09/24 02:30:11;;;;;;;16.83;10.00;;;13.60;99.90;;;;;;5132571;27;20206;-55
2022/09/24 02:32:39;;;;;;;13.52;9.10;;;13.60;99.90;;;;;;5132399;27;20206;-55
2022/09/24 02:35:08;;;;;;;15.73;10.00;;;13.60;99.90;;;;;;5135787;27;20166;-54
2022/09/24 02:37:39;;;;;;;13.85;9.80;;;13.60;99.90;;;;;;5137040;27;20179;-55
2022/09/24 02:40:07;;;;;;;12.45;10.35;;;13.60;99.90;;;;;;5136632;27;20222;-54
2022/09/24 02:42:33;;;;;;;13.80;10.32;;;13.60;99.90;;;;;;5137120;27;20168;-55
2022/09/24 02:44:59;;;;;;;16.17;9.82;;;13.60;99.90;;;;;;5137122;27;20206;-55
2022/09/24 02:47:25;;;;;;;16.20;9.63;;;13.60;99.90;;;;;;5136884;27;20175;-51
2022/09/24 02:49:51;;;;;;;16.67;9.15;;;13.60;99.90;;;;;;5136689;27;20168;-51
2022/09/24 02:52:17;;;;;;;16.25;10.30;;;13.60;99.90;;;;;;5136498;27;20202;-51
2022/09/24 02:54:43;;;;;;;16.20;10.35;;;13.60;99.90;;;;;;5136566;27;20625;-55
2022/09/24 02:57:09;;;;;;;15.68;11.05;;;13.60;99.90;;;;;;5136979;27;20168;-50
2022/09/24 02:59:35;;;;;;;17.70;10.15;;;13.60;99.90;;;;;;5136710;27;20252;-50
2022/09/24 03:02:01;;;;;;;15.45;10.48;;;13.60;99.90;;;;;;5136685;27;20188;-50
2022/09/24 03:04:27;;;;;;;15.98;11.10;;;13.60;99.90;;;;;;5136261;27;20164;-50
2022/09/24 03:06:53;;;;;;;14.20;10.43;;;13.60;99.90;;;;;;5136259;27;20258;-51
2022/09/24 03:09:19;;;;;;;17.33;11.45;;;13.60;99.90;;;;;;5134872;27;20206;-50
2022/09/24 03:11:45;;;;;;;19.27;11.63;;;13.60;99.90;;;;;;5136110;27;20168;-50
2022/09/24 03:14:10;;;;;;;18.15;11.23;;;13.60;99.90;;;;;;5136291;27;20229;-50
2022/09/24 03:16:36;;;;;;;15.32;11.10;;;13.60;99.90;;;;;;5136086;27;20164;-50
2022/09/24 03:19:02;;;;;;;18.10;11.65;;;13.50;99.90;;;;;;5136343;27;20569;-50
2022/09/24 03:21:28;;;;;;;13.68;11.38;;;13.50;99.90;;;;;;5135839;27;20160;-50
2022/09/24 03:23:53;;;;;;;18.08;11.52;;;13.50;99.90;;;;;;5136010;27;20160;-50
2022/09/24 03:26:19;;;;;;;21.83;12.00;;;13.50;99.90;;;;;;5136159;27;20167;-50
2022/09/24 03:28:45;;;;;;;17.40;10.98;;;13.50;99.90;;;;;;5135811;27;20172;-51
2022/09/24 03:31:11;;;;;;;17.95;11.75;;;13.50;99.90;;;;;;5135747;27;20179;-50
2022/09/24 03:33:46;;;;;;;15.90;10.88;;;13.50;99.90;;;;;;5135639;27;20215;-50
2022/09/24 03:36:19;;;;;;;15.65;10.65;;;13.40;99.90;;;;;;5135734;27;20156;-50
2022/09/24 03:38:48;;;;;;;15.77;10.98;;;13.40;99.90;;;;;;5135967;27;20168;-51
2022/09/24 03:41:14;;;;;;;15.65;11.20;;;13.40;99.90;;;;;;5135863;27;20168;-51
2022/09/24 03:43:40;;;;;;;17.27;11.65;;;13.40;99.90;;;;;;5135540;27;20214;-49
2022/09/24 03:46:08;;;;;;;20.33;12.55;;;13.40;99.90;;;;;;5135268;27;20180;-50
2022/09/24 03:48:35;;;;;;;17.20;11.88;;;13.40;99.90;;;;;;5135815;27;20156;-50
2022/09/24 03:51:09;;;;;;;15.80;10.90;;;13.40;99.90;;;;;;5135704;27;20171;-50
2022/09/24 03:53:36;;;;;;;13.32;10.35;;;13.40;99.90;;;;;;5135068;27;20210;-50
2022/09/24 03:56:04;;;;;;;14.48;10.98;;;13.40;99.90;;;;;;5135690;27;20526;-51
2022/09/24 03:58:30;;;;;;;16.05;11.48;;;13.40;99.90;;;;;;5135873;27;20168;-50
2022/09/24 04:00:56;;;;;;;16.77;11.07;;;13.40;99.90;;;;;;5135478;27;20267;-50
2022/09/24 04:03:23;;;;;;;19.48;11.43;;;13.40;99.90;;;;;;5135350;27;20200;-50
2022/09/24 04:05:50;;;;;;;17.25;12.23;;;13.40;99.90;;;;;;5135047;27;20533;-49
2022/09/24 04:08:18;;;;;;;17.73;10.77;;;13.40;99.90;;;;;;5135313;27;20180;-50
2022/09/24 04:10:47;;;;;;;15.73;11.57;;;13.40;99.90;;;;;;5135368;27;20195;-50
2022/09/24 04:13:13;;;;;;;15.45;12.63;;;13.30;99.90;;;;;;5134967;27;20208;-51
2022/09/24 04:15:39;;;;;;;17.05;11.65;;;13.30;99.90;;;;;;5135012;27;20209;-51
2022/09/24 04:18:05;;;;;;;16.25;11.52;;;13.30;99.90;;;;;;5134847;27;20289;-50
2022/09/24 04:20:31;;;;;;;16.10;10.95;;;13.30;99.90;;;;;;5135200;27;20168;-51
2022/09/24 04:22:58;;;;;;;21.20;12.05;;;13.30;99.90;;;;;;5135091;27;20534;-50
2022/09/24 04:25:25;;;;;;;17.63;11.77;;;13.30;99.90;;;;;;5134572;27;20176;-50
2022/09/24 04:28:11;;;;;;;16.17;11.50;;;13.30;99.90;;;;;;5134598;27;20168;-54
2022/09/24 04:30:37;;;;;;;15.77;11.93;;;13.30;99.90;;;;;;5134212;27;20172;-49
2022/09/24 04:33:03;;;;;;;16.80;12.38;;;13.20;99.90;;;;;;5134791;27;20204;-50
2022/09/24 04:35:30;;;;;;;15.98;11.38;;;13.20;99.90;;;;;;5134941;27;20312;-51
2022/09/24 04:37:58;;;;;;;16.83;11.85;;;13.30;99.90;;;;;;5134496;27;20201;-51
2022/09/24 04:40:24;;;;;;;17.33;12.30;;;13.20;99.90;;;;;;5134671;27;20168;-51
2022/09/24 04:42:49;;;;;;;15.73;12.10;;;13.20;99.90;;;;;;5134605;27;20163;-54
2022/09/24 04:45:18;;;;;;;18.70;12.13;;;13.30;99.90;;;;;;5134365;27;20187;-54
2022/09/24 04:47:44;;;;;;;16.90;11.43;;;13.30;99.90;;;;;;5134491;27;20169;-53
2022/09/24 04:50:10;;;;;;;19.10;12.75;;;13.30;99.90;;;;;;5134413;27;20705;-55
2022/09/24 04:52:38;;;;;;;18.55;11.02;;;13.30;99.90;;;;;;5134066;27;20207;-54
2022/09/24 04:55:04;;;;;;;17.25;12.00;;;13.30;99.90;;;;;;5134075;27;20220;-51
2022/09/24 04:57:34;;;;;;;22.30;13.02;;;13.30;99.90;;;;;;5133826;27;20641;-54
2022/09/24 05:00:01;;;;;;;15.98;12.00;;;13.30;99.90;;;;;;5133182;27;20168;-54
2022/09/24 05:02:27;;;;;;;14.63;10.65;;;13.30;99.90;;;;;;5134013;27;20156;-54
2022/09/24 05:04:52;;;;;;;14.25;10.68;;;13.20;99.90;;;;;;5133987;27;20650;-54
2022/09/24 05:07:18;;;;;;;18.00;10.80;;;13.30;99.90;;;;;;5133951;27;20168;-54
2022/09/24 05:09:43;;;;;;;16.38;11.00;;;13.20;99.90;;;;;;5133892;27;20167;-55
2022/09/24 05:12:09;;;;;;;17.00;11.82;;;13.20;99.90;;;;;;5133643;27;20316;-54
2022/09/24 05:14:34;;;;;;;15.80;11.10;;;13.20;99.90;;;;;;5133780;27;20200;-54
2022/09/24 05:17:00;;;;;;;15.48;11.45;;;13.20;99.90;;;;;;5133830;27;20178;-53
2022/09/24 05:19:25;;;;;;;15.40;10.68;;;13.10;99.90;;;;;;5133659;27;20164;-53
2022/09/24 05:21:51;;;;;;;19.52;12.90;;;13.10;99.90;;;;;;5133530;27;20180;-53
2022/09/24 05:24:17;;;;;;;14.02;11.55;;;13.10;99.90;;;;;;5133785;27;20175;-54
2022/09/24 05:29:26;;;;;;;20.33;12.57;;;13.10;99.90;;;;;;5133387;27;20528;-55
2022/09/24 05:31:52;;;;;;;19.20;12.10;;;13.00;99.90;;;;;;5133346;27;20164;-53
2022/09/24 05:34:17;;;;;;;17.38;11.95;;;13.10;99.90;;;;;;5131885;27;20539;-54
2022/09/24 05:36:44;;;;;;;20.35;11.55;;;13.00;99.90;;;;;;5133381;27;20168;-55
2022/09/24 05:39:13;;;;;;;16.27;11.77;;;13.00;99.90;;;;;;5133576;27;20195;-54
2022/09/24 05:41:39;;;;;;;18.52;11.98;;;13.00;99.90;;;;;;5133456;27;20182;-53
2022/09/24 05:44:05;;;;;;;15.90;11.88;;;13.00;99.90;;;;;;5133316;27;20220;-53
2022/09/24 05:46:31;;;;;;;16.23;11.38;;;13.00;99.90;;;;;;5133407;27;20172;-55
2022/09/24 05:48:58;;;;;;;19.23;10.88;;;13.00;99.90;;;;;;5133117;27;20172;-53
2022/09/24 05:51:23;;;;;;;19.17;11.38;;;13.00;99.90;;;;;;5133053;27;20172;-54
2022/09/24 05:53:49;;;;;;;21.55;11.32;;;13.00;99.90;;;;;;5133038;27;20231;-54
2022/09/24 05:56:15;;;;;;;15.18;9.93;;;13.00;99.90;;;;;;5133340;27;20168;-55
2022/09/24 05:58:41;;;;;;;16.48;9.90;;;12.90;99.90;;;;;;5133066;27;20164;-54
2022/09/24 06:01:06;;;;;;;17.73;10.95;;;12.90;99.90;;;;;;5132896;27;20161;-54
2022/09/24 06:03:32;;;;;;;18.67;11.13;;;12.90;99.90;;;;;;5133190;27;20175;-53
2022/09/24 06:06:01;;;;;;;18.20;9.90;;;12.90;99.90;;;;;;5133534;27;20174;-54
2022/09/24 06:08:29;;;;;;;19.70;9.32;;;12.90;99.90;;;;;;5133033;27;20612;-54
2022/09/24 06:10:59;;;;;;;18.42;9.15;;;12.90;99.90;;;;;;5132933;27;20172;-54
2022/09/24 06:13:25;;;;;;;16.00;8.73;;;12.90;99.90;;;;;;5132723;27;20266;-54
2022/09/24 06:15:50;;;;;;;19.63;9.07;;;12.90;99.90;;;;;;5132663;27;20160;-54
2022/09/24 06:18:16;;;;;;;15.90;8.52;;;12.90;99.90;;;;;;5132735;27;20207;-54
2022/09/24 06:20:43;;;;;;;16.45;9.15;;;13.00;99.90;;;;;;5132644;27;20160;-54
2022/09/24 06:23:09;;;;;;;15.02;8.05;;;13.10;99.90;;;;;;5132802;27;20168;-55
2022/09/24 06:25:34;;;;;;;16.60;8.05;;;13.10;99.90;;;;;;5132565;27;20160;-54
2022/09/24 06:28:02;;;;;;;16.52;7.70;;;13.10;99.90;;;;;;5132955;27;20167;-55
2022/09/24 06:30:40;;;;;;;15.80;8.38;;;13.20;99.90;;;;;;5133008;27;20156;-54
2022/09/24 06:33:08;;;;;;;12.80;8.05;;;13.20;99.90;;;;;;5132684;27;20233;-53
2022/09/24 06:35:35;;;;;;;14.10;7.78;;;13.20;99.90;;;;;;5132808;27;20172;-55
2022/09/24 06:38:02;;;;;;;17.63;8.57;;;13.30;99.90;;;;;;5132878;27;20616;-54
2022/09/24 06:40:27;;;;;;;19.33;8.02;;;13.30;99.90;;;;;;5132384;27;20692;-54
2022/09/24 06:42:53;;;;;;;16.48;8.75;;;13.40;99.90;;;;;;5132207;27;20164;-54
2022/09/24 06:45:20;;;;;;;17.10;8.25;;;13.40;99.90;;;;;;5132237;27;20185;-55
2022/09/24 06:47:59;;;;;;;19.10;9.38;;;13.30;99.90;;;;;;5132468;27;20179;-54
2022/09/24 06:50:27;;;;;;;16.17;8.90;;;13.40;99.90;;;;;;5132387;27;20170;-55
2022/09/24 06:52:52;;;;;;;11.75;8.02;;;13.50;99.90;;;;;;5132233;27;20207;-54
2022/09/24 06:55:18;;;;;;;18.13;9.30;;;13.50;99.90;;;;;;5132092;27;20208;-54
2022/09/24 06:57:44;;;;;;;12.93;8.10;;;13.60;99.90;;;;;;5132298;27;20685;-53
2022/09/24 07:00:12;;;;;;;18.98;8.55;;;13.60;99.90;;;;;;5132186;27;20684;-54
2022/09/24 07:02:37;;;;;;;14.60;9.07;;;13.80;99.90;;;;;;5132460;27;20164;-54
2022/09/24 07:05:03;;;;;;;14.68;9.43;;;13.80;99.90;;;;;;5132382;27;20586;-54
2022/09/24 07:07:30;;;;;;;16.60;9.18;;;13.80;99.90;;;;;;5132403;28;20183;-53
2022/09/24 07:09:56;;;;;;;16.38;9.55;;;14.00;99.90;;;;;;5132000;27;20175;-51
2022/09/24 07:12:22;;;;;;;17.27;9.90;;;14.00;99.90;;;;;;5132319;27;20275;-54
2022/09/24 07:14:48;;;;;;;15.10;8.50;;;14.10;99.90;;;;;;5131930;27;20174;-53
2022/09/24 07:17:14;;;;;;;15.73;7.85;;;14.20;99.90;;;;;;5130810;28;20637;-54
2022/09/24 07:19:40;;;;;;;16.70;9.32;;;14.30;99.90;;;;;;5132694;27;20168;-51
2022/09/24 07:22:06;;;;;;;16.15;9.18;;;14.30;99.90;;;;;;5136128;27;20659;-51
2022/09/24 07:24:32;;;;;;;23.63;9.50;;;14.40;99.90;;;;;;5136337;27;20160;-51
2022/09/24 07:26:57;;;;;;;17.90;9.30;;;14.40;99.90;;;;;;5135856;27;20160;-54
2022/09/24 07:29:23;;;;;;;15.45;9.55;;;14.50;99.90;;;;;;5135913;27;20164;-51
2022/09/24 07:31:49;;;;;;;16.80;8.98;;;14.50;99.90;;;;;;5135735;27;20681;-51
2022/09/24 07:34:14;;;;;;;23.08;9.85;;;14.60;99.90;;;;;;5135845;27;20250;-51
2022/09/24 07:36:40;;;;;;;18.80;8.90;;;14.60;99.90;;;;;;5135626;27;20191;-50
2022/09/24 07:39:06;;;;;;;15.50;9.20;;;14.70;99.90;;;;;;5135659;27;20182;-51
2022/09/24 07:41:32;;;;;;;18.48;10.50;;;14.80;99.90;;;;;;5135910;27;20156;-51
2022/09/24 07:43:58;;;;;;;15.90;9.73;;;14.80;99.90;;;;;;5135978;27;20164;-51
2022/09/24 07:46:23;;;;;;;15.43;9.63;;;14.90;99.90;;;;;;5135424;27;20190;-51
2022/09/24 07:48:53;;;;;;;15.65;8.82;;;14.90;99.90;;;;;;5135381;27;20156;-50
2022/09/24 07:51:18;;;;;;;14.10;9.43;;;15.00;99.90;;;;;;5135499;27;20174;-50
2022/09/24 07:53:44;;;;;;;18.30;10.40;;;15.00;99.90;;;;;;5135034;27;20224;-52
2022/09/24 07:56:09;;;;;;;17.17;9.35;;;15.00;99.90;;;;;;5135343;27;20164;-50
2022/09/24 07:58:35;;;;;;;20.15;10.18;;;15.10;99.90;;;;;;5135453;27;20179;-51
2022/09/24 08:01:01;;;;;;;18.08;10.80;;;15.10;99.90;;;;;;5135530;27;20159;-51
2022/09/24 08:03:26;;;;;;;24.02;10.35;;;15.10;99.90;;;;;;5135065;27;20167;-54
2022/09/24 08:05:57;;;;;;;14.63;9.85;;;15.10;99.90;;;;;;5134870;27;20613;-50
2022/09/24 08:08:23;;;;;;;20.17;10.85;;;15.10;99.90;;;;;;5135349;27;20170;-51
2022/09/24 08:10:49;;;;;;;16.30;9.38;;;15.10;99.90;;;;;;5134993;27;20156;-51
2022/09/24 08:13:15;;;;;;;14.00;9.27;;;15.10;99.90;;;;;;5134863;27;20203;-52
2022/09/24 08:15:40;;;;;;;15.77;9.40;;;15.10;99.90;;;;;;5135093;27;20238;-52
2022/09/24 08:18:06;;;;;;;15.38;9.38;;;15.20;99.90;;;;;;5134939;27;20616;-51
2022/09/24 08:20:32;;;;;;;16.00;9.82;;;15.20;99.90;;;;;;5135194;27;20160;-51
2022/09/24 08:23:06;;;;;;;12.80;10.13;;;15.30;99.90;;;;;;5135140;27;20163;-51
2022/09/24 08:25:32;;;;;;;14.25;9.88;;;15.20;99.90;;;;;;5135362;27;20174;-51
2022/09/24 08:28:05;;;;;;;17.92;10.80;;;15.20;99.90;;;;;;5135056;27;20164;-50
2022/09/24 08:30:32;;;;;;;18.00;11.55;;;15.20;99.90;;;;;;5135103;27;20160;-52
2022/09/24 08:32:57;;;;;;;15.43;9.60;;;15.30;99.90;;;;;;5133604;27;20208;-51
2022/09/24 08:35:24;;;;;;;16.05;9.82;;;15.20;99.90;;;;;;5134554;27;20693;-51
2022/09/24 08:37:52;;;;;;;14.82;10.30;;;15.20;99.90;;;;;;5134401;27;20172;-51
2022/09/24 08:40:27;;;;;;;11.65;8.93;;;15.20;99.90;;;;;;5133575;27;20168;-51
2022/09/24 08:42:58;;;;;;;14.18;9.63;;;15.20;99.90;;;;;;5134629;27;20242;-51
2022/09/24 08:48:22;;;;;;;15.85;10.20;;;15.40;99.90;;;;;;5114401;27;20195;-51
2022/09/24 08:50:52;;;;;;;13.00;8.75;;;15.40;99.90;;;;;;5134568;27;20168;-50
2022/09/24 08:53:27;;;;;;;15.65;10.13;;;15.40;99.90;;;;;;5134267;27;20652;-53
2022/09/24 08:55:56;;;;;;;14.20;9.93;;;15.50;99.90;;;;;;5134141;27;20611;-52
2022/09/24 08:58:31;;;;;;;15.82;10.30;;;15.60;99.90;;;;;;5133987;27;20172;-51
2022/09/24 09:01:00;;;;;;;10.95;9.15;;;15.70;99.90;;;;;;5133926;27;20164;-52
2022/09/24 09:03:41;;;;;;;15.35;10.48;;;15.70;99.90;;;;;;5134084;27;20302;-52
2022/09/24 09:06:19;;;;;;;10.57;9.45;;;15.80;99.90;;;;;;5133894;27;20160;-51
2022/09/24 09:09:18;;;;;;;12.85;10.13;;;15.80;99.90;;;;;;5133866;27;20206;-51
2022/09/24 09:11:47;;;;;;;12.35;8.95;;;15.90;99.90;;;;;;5133728;27;20175;-52
2022/09/24 09:14:18;;;;;;;11.52;9.50;;;16.10;99.90;;;;;;5133745;27;20593;-52
2022/09/24 09:17:09;;;;;;;14.57;9.70;;;16.10;99.90;;;;;;5133983;27;20167;-54
2022/09/24 09:19:38;;;;;;;13.60;10.13;;;16.20;99.90;;;;;;5133718;27;20497;-51
2022/09/24 09:22:26;;;;;;;14.68;10.55;;;16.20;99.90;;;;;;5133732;27;20156;-51
2022/09/24 09:24:54;;;;;;;15.23;9.70;;;16.30;99.90;;;;;;5133552;27;20160;-52
2022/09/24 09:27:20;;;;;;;13.77;10.23;;;16.30;99.90;;;;;;5133428;27;20220;-53
2022/09/24 09:30:06;;;;;;;16.23;9.40;;;16.30;99.90;;;;;;5133518;27;20164;-52
2022/09/24 09:32:55;;;;;;;14.98;10.80;;;16.40;99.90;;;;;;5133665;27;20199;-53
2022/09/24 09:35:43;;;;;;;13.43;10.35;;;16.30;99.90;;;;;;5133402;27;20242;-52
2022/09/24 09:38:26;;;;;;;12.95;10.45;;;16.30;99.90;;;;;;5132078;27;20208;-54
2022/09/24 09:41:17;;;;;;;14.57;10.50;;;16.30;99.90;;;;;;5133242;27;20173;-55
2022/09/24 09:43:43;;;;;;;14.50;11.13;;;16.30;99.90;;;;;;5132933;27;20160;-54
2022/09/24 09:46:23;;;;;;;13.98;10.88;;;16.30;99.90;;;;;;5133295;27;20604;-55
2022/09/24 09:48:53;;;;;;;14.98;10.43;;;16.40;99.90;;;;;;5131938;27;20220;-54
2022/09/24 09:51:20;;;;;;;13.27;10.18;;;16.30;99.90;;;;;;5132998;27;20629;-54
2022/09/24 09:53:58;;;;;;;13.30;11.05;;;16.20;99.90;;;;;;5132995;27;20227;-53
2022/09/24 09:56:29;;;;;;;17.90;11.00;;;16.30;99.90;;;;;;5132996;27;20164;-54
2022/09/24 09:59:10;;;;;;;14.35;11.05;;;16.30;99.90;;;;;;5133292;27;20175;-54
2022/09/24 10:01:41;;;;;;;14.18;10.75;;;16.20;99.90;;;;;;5132757;27;20212;-54
2022/09/24 10:04:25;;;;;;;14.73;11.43;;;16.30;99.90;;;;;;5132892;27;20175;-51
2022/09/24 10:06:50;;;;;;;11.80;9.27;;;16.20;99.90;;;;;;5132817;27;20160;-54
2022/09/24 10:09:21;;;;;;;16.08;11.02;;;16.10;99.90;;;;;;5132668;27;20186;-54
2022/09/24 10:11:47;;;;;;;16.27;11.00;;;16.10;99.90;;;;;;5132723;27;20168;-54
2022/09/24 10:14:15;;;;;;;15.95;11.88;;;16.20;99.90;;;;;;5132704;27;20769;-54
2022/09/24 10:16:44;;;;;;;12.27;10.15;;;16.40;99.90;;;;;;5132765;27;20542;-53
2022/09/24 10:19:23;;;;;;;15.43;11.07;;;16.20;99.90;;;;;;5132687;27;20277;-54
2022/09/24 10:21:51;;;;;;;19.00;11.70;;;16.20;99.90;;;;;;5132672;27;20164;-54
2022/09/24 10:24:21;;;;;;;15.60;11.10;;;16.30;99.90;;;;;;5132718;27;20560;-51
2022/09/24 10:26:47;;;;;;;14.00;11.50;;;16.20;99.90;;;;;;5132632;27;20212;-54
2022/09/24 10:32:12;;;;;;;16.15;11.55;;;16.40;99.90;;;;;;5132558;28;20606;-54
2022/09/24 10:34:37;;;;;;;15.45;12.32;;;16.40;99.90;;;;;;5132639;27;20163;-52
2022/09/24 10:37:14;;;;;;;18.00;11.60;;;16.40;99.90;;;;;;5132481;28;20179;-53
2022/09/24 10:39:40;;;;;;;17.05;12.50;;;16.40;99.90;;;;;;5132642;27;20171;-54
2022/09/24 10:42:21;;;;;;;15.63;11.15;;;16.50;99.90;;;;;;5132513;27;20192;-53
2022/09/24 10:44:47;;;;;;;13.90;10.68;;;16.50;99.90;;;;;;5132666;27;20168;-53
2022/09/24 10:47:19;;;;;;;14.80;10.23;;;16.50;99.90;;;;;;5132425;28;20577;-54
2022/09/24 10:50:03;;;;;;;16.15;11.05;;;16.50;99.90;;;;;;5132447;27;20171;-54
2022/09/24 10:52:41;;;;;;;15.55;10.57;;;16.40;99.90;;;;;;5132603;28;20199;-53
2022/09/24 10:55:31;;;;;;;16.10;11.20;;;16.60;99.90;;;;;;5133323;27;20306;-54
2022/09/24 10:58:08;;;;;;;19.75;11.07;;;16.50;99.90;;;;;;5136332;27;20160;-54
2022/09/24 11:01:13;;;;;;;17.13;12.63;;;16.50;99.90;;;;;;5136305;27;20160;-54
2022/09/24 11:04:19;;;;;;;15.90;11.45;;;16.50;99.90;;;;;;5136442;27;20167;-54
2022/09/24 11:07:22;;;;;;;17.17;10.93;;;16.50;99.90;;;;;;5136301;27;20168;-54
2022/09/24 11:09:57;;;;;;;16.75;10.57;;;16.40;99.90;;;;;;5134934;27;20167;-54
2022/09/24 11:13:00;;;;;;;15.75;11.60;;;16.40;99.90;;;;;;5135380;27;20260;-54
2022/09/24 11:15:40;;;;;;;12.88;10.07;;;16.60;99.90;;;;;;5136148;27;20155;-55
2022/09/24 11:18:35;;;;;;;15.75;10.73;;;16.60;99.90;;;;;;5136058;27;20696;-54
2022/09/24 11:21:18;;;;;;;17.40;11.13;;;16.60;99.90;;;;;;5136444;27;20160;-54
2022/09/24 11:24:03;;;;;;;13.30;9.57;;;16.60;99.90;;;;;;5136002;27;20187;-54
2022/09/24 11:27:04;;;;;;;14.70;11.38;;;16.60;99.90;;;;;;5136270;27;20222;-54
2022/09/24 11:29:51;;;;;;;15.43;11.07;;;16.60;99.90;;;;;;5090316;27;20184;-54
2022/09/24 11:32:35;;;;;;;17.38;11.15;;;16.50;99.90;;;;;;5135568;27;20214;-55
2022/09/24 11:35:17;;;;;;;16.73;10.45;;;16.50;99.90;;;;;;5135607;27;20171;-55
2022/09/24 11:37:50;;;;;;;13.02;9.75;;;16.40;99.90;;;;;;5135783;27;20160;-54
2022/09/24 11:40:41;;;;;;;14.82;10.20;;;16.40;99.90;;;;;;5135820;27;20160;-52
2022/09/24 11:43:26;;;;;;;14.63;8.95;;;16.40;99.90;;;;;;5135706;27;20621;-53
2022/09/24 11:46:35;;;;;;;11.50;8.88;;;16.30;99.90;;;;;;5135940;27;20211;-54
2022/09/24 11:49:25;;;;;;;11.75;8.85;;;16.20;99.90;;;;;;5119914;27;20175;-51
2022/09/24 11:51:57;;;;;;;13.43;8.77;;;16.20;99.90;;;;;;5135442;27;20164;-50
2022/09/24 11:54:49;;;;;;;12.43;8.75;;;16.30;99.90;;;;;;5134704;27;20215;-50
2022/09/24 11:57:32;;;;;;;12.73;8.45;;;16.30;99.90;;;;;;5135244;27;20156;-51
2022/09/24 12:00:11;;;;;;;17.33;9.32;;;16.30;99.90;;;;;;5135237;27;20160;-51
2022/09/24 12:03:07;;;;;;;13.20;9.20;;;16.40;99.90;;;;;;5133987;27;20304;-51
2022/09/24 12:05:48;;;;;;;11.75;8.15;;;16.40;99.90;;;;;;5134876;27;20160;-51
2022/09/24 12:08:37;;;;;;;11.57;8.18;;;16.40;99.90;;;;;;5135118;27;20521;-50
2022/09/24 12:11:12;;;;;;;13.57;9.60;;;16.50;99.90;;;;;;5134633;27;20172;-50
2022/09/24 12:14:13;;;;;;;14.15;9.48;;;16.50;99.90;;;;;;5134558;27;20664;-50
2022/09/24 12:16:43;;;;;;;17.60;12.27;;;16.60;99.90;;;;;;5134567;27;20242;-51
2022/09/24 12:19:29;;;;;;;13.90;10.00;;;16.60;99.90;;;;;;5134718;27;20244;-50
2022/09/24 12:21:57;;;;;;;12.73;9.88;;;16.60;99.90;;;;;;5134519;27;20160;-50
2022/09/24 12:24:43;;;;;;;12.90;9.73;;;16.60;99.90;;;;;;5134531;27;20167;-50
2022/09/24 12:27:13;;;;;;;10.50;7.35;;;16.70;99.90;;;;;;5134519;27;20242;-50
2022/09/24 12:32:59;;;;;;;11.45;8.15;;;16.60;99.90;;;;;;5134448;27;20299;-51
2022/09/24 12:35:27;;;;;;;11.55;8.63;;;16.70;99.90;;;;;;5134200;27;20160;-50
2022/09/24 12:38:02;;;;;;;11.77;8.40;;;16.70;99.90;;;;;;5134304;27;20224;-50
2022/09/24 12:40:50;;;;;;;11.30;8.82;;;16.80;99.90;;;;;;5134635;27;20159;-50
2022/09/24 12:43:26;;;;;;;14.48;9.63;;;16.80;99.90;;;;;;5134120;27;20164;-51
2022/09/24 12:45:57;;;;;;;13.70;9.77;;;16.80;99.90;;;;;;5133850;27;20210;-50
2022/09/24 12:48:25;;;;;;;13.48;9.95;;;16.80;99.90;;;;;;5134378;27;20250;-52
2022/09/24 12:50:58;;;;;;;14.60;11.13;;;16.70;99.90;;;;;;5134385;27;20164;-51
2022/09/24 12:53:26;;;;;;;14.75;10.20;;;16.80;99.90;;;;;;5134249;27;20222;-50
2022/09/24 12:55:58;;;;;;;13.35;10.38;;;16.80;99.90;;;;;;5133779;27;20164;-50
2022/09/24 12:58:50;;;;;;;15.63;10.63;;;16.70;99.90;;;;;;5134079;27;20203;-51
2022/09/24 13:01:22;;;;;;;64.65;42.97;;;16.60;99.90;;;;;;5130365;27;20372;-50
2022/09/24 13:04:12;;;;;;;15.82;12.57;;;16.60;99.90;;;;;;5134012;27;20187;-50
2022/09/24 13:06:39;;;;;;;16.45;11.75;;;16.70;99.90;;;;;;5133922;27;20624;-51
2022/09/24 13:09:43;;;;;;;14.60;11.00;;;16.60;99.90;;;;;;5134157;27;20176;-50